Time;durP1;ratioP1;P1;durP2;ratioP2;P2;SDS_P1;SDS_P2;PMS_P1;PMS_P2;Temp;Humidity;BMP_temperature;BMP_pressure;BME280_temperature;BME280_humidity;BME280_pressure;Samples;Min_cycle;Max_cycle;Signal;HPM_P1;HPM_P2
2023/06/06 00:01:52;;;;;;;9.27;5.18;;;;;;;;;;6220206;23;20023;-81
2023/06/06 00:04:18;;;;;;;8.15;5.32;;;;;;;;;;6220951;23;20051;-81
2023/06/06 00:06:44;;;;;;;13.80;6.03;;;;;;;;;;6220517;23;20024;-82
2023/06/06 00:09:11;;;;;;;9.45;5.80;;;;;;;;;;6247355;23;20062;-82
2023/06/06 00:11:39;;;;;;;7.10;5.38;;;;;;;;;;6220167;23;20020;-81
2023/06/06 00:14:07;;;;;;;9.43;6.10;;;;;;;;;;6220213;23;20096;-81
2023/06/06 00:16:34;;;;;;;6.30;4.75;;;;;;;;;;6220080;23;20453;-81
2023/06/06 00:19:00;;;;;;;9.95;5.30;;;;;;;;;;6220167;23;20024;-81
2023/06/06 00:21:27;;;;;;;8.50;4.80;;;;;;;;;;6170428;23;20330;-80
2023/06/06 00:23:55;;;;;;;12.20;5.00;;;;;;;;;;6170463;23;20453;-82
2023/06/06 00:26:21;;;;;;;19.60;5.88;;;;;;;;;;6219834;23;20020;-81
2023/06/06 00:28:47;;;;;;;7.65;5.18;;;;;;;;;;6219950;23;20453;-81
2023/06/06 00:31:14;;;;;;;11.07;6.20;;;;;;;;;;6219849;23;20043;-83
2023/06/06 00:33:40;;;;;;;10.52;6.30;;;;;;;;;;6219919;23;20027;-85
2023/06/06 00:36:06;;;;;;;9.27;5.57;;;;;;;;;;6219937;23;20534;-83
2023/06/06 00:38:32;;;;;;;7.00;5.15;;;;;;;;;;6219898;23;20353;-83
2023/06/06 00:40:59;;;;;;;8.00;5.68;;;;;;;;;;6219701;23;20021;-81
2023/06/06 00:43:25;;;;;;;7.47;5.18;;;;;;;;;;6170031;23;20024;-82
2023/06/06 00:45:52;;;;;;;7.90;5.20;;;;;;;;;;6219303;23;20020;-80
2023/06/06 00:48:20;;;;;;;12.32;6.03;;;10.10;99.90;;;;;;6170055;23;20492;-81
2023/06/06 00:50:47;;;;;;;15.25;6.78;;;;;;;;;;6195470;23;20016;-81
2023/06/06 00:53:13;;;;;;;11.23;6.05;;;;;;;;;;6170689;23;20392;-85
2023/06/06 00:55:41;;;;;;;6.90;5.38;;;;;;;;;;6219742;23;20020;-82
2023/06/06 00:58:08;;;;;;;9.02;5.63;;;;;;;;;;6170514;23;20050;-80
2023/06/06 01:00:34;;;;;;;12.32;6.05;;;;;;;;;;6194701;23;20023;-81
2023/06/06 01:03:09;;;;;;;8.55;5.90;;;10.00;99.90;;;;;;6219725;23;20067;-81
2023/06/06 01:05:35;;;;;;;8.25;4.60;;;;;;;;;;6219449;23;20020;-82
2023/06/06 01:08:04;;;;;;;6.85;4.90;;;;;;;;;;6219658;23;20048;-83
2023/06/06 01:10:31;;;;;;;11.57;5.47;;;;;;;;;;6219596;23;20035;-84
2023/06/06 01:13:16;;;;;;;7.05;4.78;;;9.90;99.90;;;;;;6219468;23;20012;-80
2023/06/06 01:15:45;;;;;;;6.47;5.03;;;;;;;;;;6219737;23;20016;-82
2023/06/06 01:18:12;;;;;;;10.52;6.05;;;;;;;;;;6220284;23;20394;-84
2023/06/06 01:20:42;;;;;;;11.15;6.13;;;10.00;99.90;;;;;;6169969;23;20020;-84
2023/06/06 01:23:10;;;;;;;6.30;4.63;;;;;;;;;;6219776;23;20082;-81
2023/06/06 01:25:37;;;;;;;10.02;5.95;;;;;;;;;;6246288;23;20022;-80
2023/06/06 01:28:04;;;;;;;8.95;5.45;;;;;;;;;;6246718;23;20066;-84
2023/06/06 01:30:32;;;;;;;9.60;4.95;;;;;;;;;;6246695;23;20020;-80
2023/06/06 01:33:09;;;;;;;8.93;5.68;;;9.70;99.90;;;;;;6219508;23;20022;-83
2023/06/06 01:36:20;;;;;;;8.70;5.38;;;9.90;99.90;;;;;;6219358;23;20052;-83
2023/06/06 01:38:49;;;;;;;8.02;4.60;;;9.90;99.90;;;;;;6204182;23;20062;-81
2023/06/06 01:41:19;;;;;;;10.20;5.70;;;9.80;99.90;;;;;;6219094;23;20020;-84
2023/06/06 01:43:47;;;;;;;11.10;5.57;;;9.80;99.90;;;;;;6195144;23;20016;-81
2023/06/06 01:46:13;;;;;;;9.57;5.50;;;9.80;99.90;;;;;;6219352;23;20016;-81
2023/06/06 01:48:40;;;;;;;11.55;6.18;;;;;;;;;;6219426;23;20012;-81
2023/06/06 01:51:06;;;;;;;11.30;6.05;;;;;;;;;;6244457;23;20098;-83
2023/06/06 01:53:32;;;;;;;8.00;5.95;;;;;;;;;;6194408;23;20066;-85
2023/06/06 01:55:58;;;;;;;10.18;5.43;;;;;;;;;;6219430;23;20377;-83
2023/06/06 01:58:24;;;;;;;9.95;5.45;;;;;;;;;;6219518;23;20082;-81
2023/06/06 02:00:50;;;;;;;10.27;5.38;;;;;;;;;;6219228;23;20026;-83
2023/06/06 02:03:16;;;;;;;10.25;6.38;;;;;;;;;;6219271;23;20022;-83
2023/06/06 02:05:42;;;;;;;7.65;5.55;;;;;;;;;;6244327;23;20020;-82
2023/06/06 02:08:08;;;;;;;6.38;4.45;;;;;;;;;;6219167;23;20078;-82
2023/06/06 02:10:34;;;;;;;9.30;4.22;;;;;;;;;;6219141;23;20020;-84
2023/06/06 02:13:00;;;;;;;8.88;5.05;;;;;;;;;;6219122;23;20432;-83
2023/06/06 02:15:29;;;;;;;7.82;5.80;;;;;;;;;;6194185;23;20024;-80
2023/06/06 02:17:55;;;;;;;9.35;6.03;;;;;;;;;;6244367;23;20012;-80
2023/06/06 02:20:21;;;;;;;8.48;6.13;;;;;;;;;;6219260;23;20047;-80
2023/06/06 02:22:47;;;;;;;9.85;6.90;;;;;;;;;;6244412;23;20016;-81
2023/06/06 02:25:13;;;;;;;15.13;6.60;;;;;;;;;;6219091;23;20017;-81
2023/06/06 02:27:43;;;;;;;12.38;7.10;;;;;;;;;;6219164;23;20575;-81
2023/06/06 02:30:10;;;;;;;12.52;6.75;;;;;;;;;;6244172;23;20024;-80
2023/06/06 02:32:36;;;;;;;8.02;5.82;;;;;;;;;;6218272;23;20020;-80
2023/06/06 02:35:05;;;;;;;7.35;6.15;;;;;;;;;;6219009;23;20024;-80
2023/06/06 02:37:32;;;;;;;12.90;6.32;;;;;;;;;;6218873;23;20035;-81
2023/06/06 02:39:59;;;;;;;9.52;5.78;;;;;;;;;;6219342;23;20386;-80
2023/06/06 02:42:25;;;;;;;13.57;6.43;;;;;;;;;;6244032;23;20115;-80
2023/06/06 02:44:51;;;;;;;13.15;5.90;;;;;;;;;;6194091;23;20166;-81
2023/06/06 02:47:17;;;;;;;7.65;5.15;;;;;;;;;;6244284;23;20019;-83
2023/06/06 02:49:45;;;;;;;8.48;5.78;;;;;;;;;;6244251;23;20016;-82
2023/06/06 02:52:11;;;;;;;8.02;6.05;;;;;;;;;;6244393;23;20023;-82
2023/06/06 02:54:37;;;;;;;10.98;6.45;;;;;;;;;;6219014;23;20016;-83
2023/06/06 02:57:03;;;;;;;14.05;6.35;;;;;;;;;;6244340;23;20069;-82
2023/06/06 02:59:29;;;;;;;14.52;6.20;;;;;;;;;;6194468;23;20023;-86
2023/06/06 03:01:55;;;;;;;12.65;5.82;;;;;;;;;;6244453;23;20016;-84
2023/06/06 03:04:21;;;;;;;8.38;5.82;;;;;;;;;;6244136;23;20050;-85
2023/06/06 03:06:48;;;;;;;15.25;6.28;;;;;;;;;;6245422;22;20100;-80
2023/06/06 03:09:14;;;;;;;9.55;5.47;;;;;;;;;;6244367;23;20338;-81
2023/06/06 03:11:40;;;;;;;12.75;5.45;;;;;;;;;;6220791;23;20020;-81
2023/06/06 03:14:06;;;;;;;15.02;7.15;;;;;;;;;;6221156;23;20138;-82
2023/06/06 03:16:34;;;;;;;12.95;6.07;;;;;;;;;;6195917;23;20345;-83
2023/06/06 03:19:01;;;;;;;8.95;5.80;;;;;;;;;;6220668;23;20400;-80
2023/06/06 03:21:27;;;;;;;10.43;6.43;;;;;;;;;;6220794;23;20099;-80
2023/06/06 03:23:54;;;;;;;10.38;5.65;;;;;;;;;;6221002;23;20016;-83
2023/06/06 03:26:20;;;;;;;9.32;6.18;;;;;;;;;;6220747;23;20020;-84
2023/06/06 03:28:46;;;;;;;9.10;6.13;;;;;;;;;;6220951;23;20016;-83
2023/06/06 03:31:12;;;;;;;9.60;6.22;;;;;;;;;;6195449;23;20038;-81
2023/06/06 03:33:38;;;;;;;12.90;7.60;;;;;;;;;;6220623;23;20017;-83
2023/06/06 03:36:07;;;;;;;8.55;5.95;;;;;;;;;;6220726;23;20339;-84
2023/06/06 03:38:33;;;;;;;9.93;6.63;;;;;;;;;;6221174;23;20019;-86
2023/06/06 03:40:59;;;;;;;8.70;6.65;;;;;;;;;;6220420;23;20328;-84
2023/06/06 03:43:25;;;;;;;7.35;5.72;;;;;;;;;;6220698;23;20028;-81
2023/06/06 03:45:51;;;;;;;9.20;6.22;;;;;;;;;;6245527;23;20016;-81
2023/06/06 03:48:17;;;;;;;12.80;7.18;;;;;;;;;;6245769;23;20395;-81
2023/06/06 03:50:43;;;;;;;10.18;6.40;;;;;;;;;;6220538;23;20016;-84
2023/06/06 03:53:09;;;;;;;15.40;6.53;;;;;;;;;;6245689;23;20016;-82
2023/06/06 03:55:37;;;;;;;12.77;6.88;;;;;;;;;;6245704;23;20411;-81
2023/06/06 03:58:04;;;;;;;9.68;6.32;;;;;;;;;;6220936;23;20020;-81
2023/06/06 04:00:31;;;;;;;13.38;6.85;;;;;;;;;;6220236;23;20066;-81
2023/06/06 04:02:57;;;;;;;11.05;5.80;;;;;;;;;;6220197;23;20016;-81
2023/06/06 04:05:23;;;;;;;9.48;6.47;;;;;;;;;;6245371;23;20056;-81
2023/06/06 04:07:49;;;;;;;21.48;6.93;;;;;;;;;;6220242;23;20441;-83
2023/06/06 04:10:15;;;;;;;10.35;6.40;;;;;;;;;;6220026;23;20020;-81
2023/06/06 04:12:41;;;;;;;11.52;6.70;;;;;;;;;;6220170;23;20012;-81
2023/06/06 04:15:11;;;;;;;15.98;6.90;;;;;;;;;;6245112;23;20078;-80
2023/06/06 04:17:37;;;;;;;7.80;5.70;;;;;;;;;;6245458;23;20512;-80
2023/06/06 04:20:04;;;;;;;10.25;6.43;;;;;;;;;;6220135;23;20016;-81
2023/06/06 04:22:30;;;;;;;12.20;6.53;;;;;;;;;;6220416;23;20473;-80
2023/06/06 04:24:56;;;;;;;13.88;7.03;;;;;;;;;;6219817;23;20350;-81
2023/06/06 04:27:23;;;;;;;10.82;6.80;;;;;;;;;;6220164;23;20098;-85
2023/06/06 04:29:51;;;;;;;14.80;6.43;;;;;;;;;;6195807;23;20063;-84
2023/06/06 04:32:20;;;;;;;10.57;6.15;;;;;;;;;;6245250;23;20027;-82
2023/06/06 04:34:47;;;;;;;17.35;6.65;;;10.40;99.90;;;;;;6245237;23;20012;-81
2023/06/06 04:37:14;;;;;;;25.73;6.68;;;;;;;;;;6195046;23;20515;-83
2023/06/06 04:39:41;;;;;;;10.25;6.45;;;;;;;;;;6195318;23;20496;-82
2023/06/06 04:42:07;;;;;;;15.43;6.20;;;;;;;;;;6244857;23;20057;-84
2023/06/06 04:44:42;;;;;;;9.35;6.25;;;;;;;;;;6244776;23;20028;-81
2023/06/06 04:47:10;;;;;;;10.75;6.07;;;10.60;99.90;;;;;;6219720;23;20043;-82
2023/06/06 04:49:37;;;;;;;13.57;7.70;;;;;;;;;;6245150;23;20012;-81
2023/06/06 04:52:08;;;;;;;13.95;7.90;;;10.70;99.90;;;;;;6195087;23;20024;-83
2023/06/06 04:54:37;;;;;;;13.65;7.68;;;10.80;99.90;;;;;;6219820;23;20012;-82
2023/06/06 04:57:05;;;;;;;11.70;6.85;;;;;;;;;;6269908;22;20091;-82
2023/06/06 04:59:32;;;;;;;13.88;6.75;;;;;;;;;;6219662;23;20024;-85
2023/06/06 05:01:59;;;;;;;14.57;7.18;;;;;;;;;;6244909;23;20023;-80
2023/06/06 05:04:25;;;;;;;13.98;7.03;;;;;;;;;;6219579;23;20022;-80
2023/06/06 05:06:53;;;;;;;12.43;6.30;;;;;;;;;;6194926;23;20020;-80
2023/06/06 05:09:19;;;;;;;11.30;6.68;;;;;;;;;;6219636;23;20095;-80
2023/06/06 05:11:46;;;;;;;12.48;6.95;;;11.20;99.90;;;;;;6244677;23;20023;-80
2023/06/06 05:14:13;;;;;;;12.65;6.63;;;;;;;;;;6244657;23;20012;-81
2023/06/06 05:16:39;;;;;;;15.05;6.63;;;;;;;;;;6244709;23;20025;-81
2023/06/06 05:19:05;;;;;;;14.68;6.70;;;;;;;;;;6219474;23;20099;-81
2023/06/06 05:21:33;;;;;;;15.68;7.25;;;;;;;;;;6194584;23;20012;-81
2023/06/06 05:23:59;;;;;;;17.58;6.97;;;;;;;;;;6219343;23;20020;-81
2023/06/06 05:26:30;;;;;;;14.80;7.20;;;;;;;;;;6219527;23;20047;-81
2023/06/06 05:28:56;;;;;;;12.82;7.28;;;;;;;;;;6219533;23;20023;-82
2023/06/06 05:31:22;;;;;;;17.13;7.20;;;;;;;;;;6244514;23;20468;-80
2023/06/06 05:33:48;;;;;;;15.13;6.32;;;;;;;;;;6194362;23;20012;-81
2023/06/06 05:36:14;;;;;;;14.38;6.75;;;;;;;;;;6244632;23;20016;-81
2023/06/06 05:38:41;;;;;;;17.65;7.35;;;;;;;;;;6219369;23;20099;-81
2023/06/06 05:41:07;;;;;;;11.85;6.45;;;;;;;;;;6218966;23;20023;-80
2023/06/06 05:43:33;;;;;;;14.13;6.13;;;;;;;;;;6244650;23;20016;-81
2023/06/06 05:46:01;;;;;;;11.38;5.32;;;12.10;99.90;;;;;;6194352;23;20016;-80
2023/06/06 05:48:27;;;;;;;15.23;6.30;;;;;;;;;;6219142;23;20345;-83
2023/06/06 05:50:53;;;;;;;12.70;5.90;;;;;;;;;;6194507;23;20027;-81
2023/06/06 05:53:21;;;;;;;11.90;5.85;;;;;;;;;;6244444;23;20012;-80
2023/06/06 05:55:47;;;;;;;11.82;5.88;;;12.50;99.90;;;;;;6194560;23;20020;-81
2023/06/06 05:58:13;;;;;;;11.98;6.88;;;;;;;;;;6244290;23;20501;-81
2023/06/06 06:00:39;;;;;;;9.25;5.85;;;;;;;;;;6244423;23;20026;-83
2023/06/06 06:03:07;;;;;;;11.18;5.82;;;12.60;99.90;;;;;;6219749;23;20019;-80
2023/06/06 06:05:33;;;;;;;6.70;4.25;;;;;;;;;;6244519;23;20024;-81
2023/06/06 06:08:02;;;;;;;10.18;4.63;;;12.60;99.90;;;;;;6219124;23;20044;-81
2023/06/06 06:10:29;;;;;;;7.65;3.97;;;12.90;99.90;;;;;;6219247;23;20016;-81
2023/06/06 06:12:55;;;;;;;12.00;5.45;;;;;;;;;;6219287;23;20024;-81
2023/06/06 06:15:22;;;;;;;9.02;4.90;;;12.70;99.90;;;;;;6219026;23;20123;-81
2023/06/06 06:17:48;;;;;;;9.85;3.80;;;;;;;;;;6219401;23;20008;-80
2023/06/06 06:20:16;;;;;;;5.25;3.78;;;;;;;;;;6244462;23;20023;-81
2023/06/06 06:22:42;;;;;;;6.78;3.90;;;13.20;99.90;;;;;;6218986;23;20069;-80
2023/06/06 06:25:12;;;;;;;11.65;4.10;;;;;;;;;;6218891;23;20051;-81
2023/06/06 06:27:38;;;;;;;10.75;5.05;;;;;;;;;;6218915;23;20449;-80
2023/06/06 06:30:05;;;;;;;8.32;3.72;;;;;;;;;;6219229;23;20465;-81
2023/06/06 06:32:34;;;;;;;7.53;3.53;;;;;;;;;;6244125;23;20016;-80
2023/06/06 06:35:01;;;;;;;10.07;4.15;;;13.30;99.90;;;;;;6194056;23;20012;-80
2023/06/06 06:37:29;;;;;;;10.32;4.40;;;;;;;;;;6219118;23;20012;-80
2023/06/06 06:39:56;;;;;;;12.75;4.10;;;13.50;99.90;;;;;;6219077;23;20341;-81
2023/06/06 06:42:22;;;;;;;6.28;3.92;;;;;;;;;;6218972;23;20027;-79
2023/06/06 06:44:49;;;;;;;11.93;4.32;;;13.40;99.90;;;;;;6219239;23;20020;-80
2023/06/06 06:47:15;;;;;;;7.13;3.60;;;;;;;;;;6221156;23;20020;-80
2023/06/06 06:49:41;;;;;;;5.75;3.80;;;13.40;99.90;;;;;;6220927;23;20020;-80
2023/06/06 06:52:07;;;;;;;6.22;3.17;;;;;;;;;;6220635;23;20450;-80
2023/06/06 06:54:35;;;;;;;6.55;3.28;;;;;;;;;;6221103;23;20078;-82
2023/06/06 06:57:02;;;;;;;5.60;3.25;;;13.70;99.90;;;;;;6246170;23;20027;-80
2023/06/06 06:59:28;;;;;;;9.45;3.95;;;;;;;;;;6221030;23;20481;-80
2023/06/06 07:01:55;;;;;;;13.85;5.03;;;13.90;99.90;;;;;;6246274;23;20349;-80
2023/06/06 07:04:21;;;;;;;5.38;3.33;;;;;;;;;;6220529;23;20023;-80
2023/06/06 07:06:47;;;;;;;6.43;3.83;;;;;;;;;;6220761;23;20038;-80
2023/06/06 07:09:15;;;;;;;6.38;3.97;;;;;;;;;;6220638;23;20016;-80
2023/06/06 07:11:41;;;;;;;9.50;4.38;;;;;;;;;;6245739;23;20059;-80
2023/06/06 07:14:07;;;;;;;6.82;3.35;;;;;;;;;;6195956;23;20016;-80
2023/06/06 07:16:33;;;;;;;12.27;4.90;;;14.40;99.90;;;;;;6195770;23;20036;-80
2023/06/06 07:19:00;;;;;;;9.18;3.92;;;;;;;;;;6220716;23;20511;-80
2023/06/06 07:21:26;;;;;;;13.13;4.38;;;;;;;;;;6195856;23;20035;-80
2023/06/06 07:23:52;;;;;;;13.55;5.80;;;14.20;99.90;;;;;;6195822;23;20058;-80
2023/06/06 07:26:19;;;;;;;9.32;5.00;;;14.50;99.90;;;;;;6220557;23;20020;-80
2023/06/06 07:28:46;;;;;;;7.05;4.65;;;;;;;;;;6220614;23;20449;-82
2023/06/06 07:31:13;;;;;;;7.13;4.18;;;14.50;99.90;;;;;;6245700;23;20024;-79
2023/06/06 07:33:40;;;;;;;13.38;4.30;;;;;;;;;;6220515;23;20567;-80
2023/06/06 07:36:07;;;;;;;8.18;4.65;;;14.60;99.90;;;;;;6220483;23;20016;-84
2023/06/06 07:38:33;;;;;;;7.15;4.40;;;;;;;;;;6246752;23;20012;-80
2023/06/06 07:40:59;;;;;;;10.27;4.93;;;;;;;;;;6245083;23;20020;-81
2023/06/06 07:43:26;;;;;;;9.27;4.82;;;;;;;;;;6195564;23;20026;-80
2023/06/06 07:45:52;;;;;;;8.88;4.47;;;14.90;99.90;;;;;;6220558;23;20396;-81
2023/06/06 07:48:18;;;;;;;10.60;5.10;;;;;;;;;;6220154;23;20048;-81
2023/06/06 07:50:44;;;;;;;11.02;4.93;;;14.70;99.90;;;;;;6220395;23;20016;-82
2023/06/06 07:53:10;;;;;;;6.05;4.00;;;;;;;;;;6220442;23;20097;-83
2023/06/06 07:55:37;;;;;;;8.38;4.60;;;;;;;;;;6245518;23;20016;-83
2023/06/06 07:58:10;;;;;;;12.63;5.70;;;14.70;99.90;;;;;;6195598;23;20016;-82
2023/06/06 08:00:44;;;;;;;11.48;5.43;;;14.60;99.90;;;;;;6245720;23;20017;-81
2023/06/06 08:03:11;;;;;;;8.23;4.60;;;;;;;;;;6220145;23;20102;-80
2023/06/06 08:05:38;;;;;;;7.38;4.32;;;;;;;;;;6220091;23;20488;-83
2023/06/06 08:08:06;;;;;;;14.35;5.43;;;14.80;99.90;;;;;;6245212;23;20017;-82
2023/06/06 08:10:32;;;;;;;12.85;4.93;;;15.10;99.90;;;;;;6195347;23;20441;-81
2023/06/06 08:12:59;;;;;;;8.18;4.25;;;15.30;99.90;;;;;;6195004;23;20027;-80
2023/06/06 08:15:25;;;;;;;10.90;4.60;;;;;;;;;;6245391;23;20078;-82
2023/06/06 08:17:52;;;;;;;10.20;4.72;;;;;;;;;;6220279;23;20016;-79
2023/06/06 08:20:17;;;;;;;5.82;4.85;;;15.40;99.90;;;;;;6220328;23;20020;-81
2023/06/06 08:22:51;;;;;;;12.85;4.95;;;15.70;99.90;;;;;;6195269;23;20020;-82
2023/06/06 08:25:17;;;;;;;8.68;4.20;;;;;;;;;;6245899;23;20023;-82
2023/06/06 08:27:43;;;;;;;6.03;4.80;;;;;;;;;;6245273;23;20027;-83
2023/06/06 08:30:10;;;;;;;10.40;4.68;;;15.90;99.90;;;;;;6245096;23;20023;-83
2023/06/06 08:32:37;;;;;;;8.32;4.72;;;;;;;;;;6245343;23;20019;-80
2023/06/06 08:35:03;;;;;;;8.88;4.13;;;15.70;99.90;;;;;;6245165;23;20031;-82
2023/06/06 08:37:30;;;;;;;12.63;5.30;;;;;;;;;;6244990;23;20023;-81
2023/06/06 08:39:57;;;;;;;13.80;5.47;;;;;;;;;;6219824;23;20017;-81
2023/06/06 08:42:23;;;;;;;8.50;5.25;;;;;;;;;;6219729;23;20012;-81
2023/06/06 08:44:50;;;;;;;13.68;5.20;;;;;;;;;;6244838;23;20016;-81
2023/06/06 08:47:17;;;;;;;8.88;4.95;;;16.10;99.90;;;;;;6244857;23;20354;-80
2023/06/06 08:49:43;;;;;;;10.60;5.10;;;;;;;;;;6219877;23;20094;-82
2023/06/06 08:52:10;;;;;;;7.60;4.18;;;;;;;;;;6244930;23;20027;-81
2023/06/06 08:54:37;;;;;;;7.78;4.85;;;16.30;99.90;;;;;;6219830;23;20350;-81
2023/06/06 08:57:11;;;;;;;11.10;4.80;;;16.30;99.90;;;;;;6219279;23;20016;-81
2023/06/06 08:59:37;;;;;;;8.15;4.88;;;;;;;;;;6244994;23;20453;-81
2023/06/06 09:02:06;;;;;;;8.80;5.00;;;16.40;99.90;;;;;;6246192;23;20051;-81
2023/06/06 09:04:36;;;;;;;9.32;5.07;;;16.40;99.90;;;;;;6244901;23;20018;-82
2023/06/06 09:07:04;;;;;;;11.82;5.25;;;16.60;99.90;;;;;;6219233;23;20039;-83
2023/06/06 09:09:35;;;;;;;10.43;5.05;;;16.30;99.90;;;;;;6244969;23;20406;-83
2023/06/06 09:12:01;;;;;;;6.32;4.78;;;;;;;;;;6245253;23;20051;-81
2023/06/06 09:14:27;;;;;;;6.10;4.00;;;;;;;;;;6220003;23;20016;-80
2023/06/06 09:16:53;;;;;;;8.90;4.10;;;16.60;99.90;;;;;;6219737;23;20016;-81
2023/06/06 09:19:25;;;;;;;5.18;4.28;;;;;;;;;;6244402;23;20023;-84
2023/06/06 09:21:52;;;;;;;6.57;4.95;;;;;;;;;;6219454;23;20016;-84
2023/06/06 09:24:18;;;;;;;9.93;4.53;;;16.70;99.90;;;;;;6219485;23;20028;-80
2023/06/06 09:26:44;;;;;;;9.35;4.50;;;;;;;;;;6219713;23;20456;-80
2023/06/06 09:29:13;;;;;;;10.43;4.95;;;;;;;;;;6244849;23;20095;-83
2023/06/06 09:31:40;;;;;;;10.50;5.03;;;;;;;;;;6195124;23;20066;-82
2023/06/06 09:34:10;;;;;;;10.10;4.85;;;16.80;99.90;;;;;;6219986;23;20449;-82
2023/06/06 09:36:41;;;;;;;10.32;5.60;;;16.70;99.90;;;;;;6219766;23;20086;-82
2023/06/06 09:39:14;;;;;;;8.48;5.95;;;16.70;99.90;;;;;;6244646;23;20091;-81
2023/06/06 09:42:06;;;;;;;10.25;5.00;;;17.00;99.90;;;;;;6219201;23;20028;-81
2023/06/06 09:44:32;;;;;;;14.02;6.60;;;16.80;99.90;;;;;;6219170;23;20086;-81
2023/06/06 09:46:59;;;;;;;15.95;7.32;;;16.80;99.90;;;;;;6219335;23;20327;-81
2023/06/06 09:49:25;;;;;;;11.55;5.85;;;;;;;;;;6219162;23;20016;-80
2023/06/06 09:51:54;;;;;;;16.02;6.72;;;17.00;99.90;;;;;;6219214;23;20020;-81
2023/06/06 09:54:23;;;;;;;12.50;6.10;;;17.10;99.90;;;;;;6219354;23;20027;-81
2023/06/06 09:56:50;;;;;;;13.23;5.55;;;17.10;99.90;;;;;;6244458;23;20020;-81
2023/06/06 09:59:16;;;;;;;10.73;5.63;;;17.10;99.90;;;;;;6244479;23;20027;-80
2023/06/06 10:01:45;;;;;;;12.05;5.72;;;17.10;99.90;;;;;;6219325;23;20012;-80
2023/06/06 10:04:11;;;;;;;13.68;6.13;;;16.80;99.90;;;;;;6219074;23;20058;-81
2023/06/06 10:06:39;;;;;;;12.55;6.30;;;17.00;99.90;;;;;;6219796;23;20056;-81
2023/06/06 10:09:07;;;;;;;11.82;6.93;;;17.10;99.90;;;;;;6219635;23;20015;-87
2023/06/06 10:11:34;;;;;;;19.15;5.78;;;17.30;99.90;;;;;;6194126;23;20468;-80
2023/06/06 10:14:05;;;;;;;8.50;5.65;;;17.20;99.90;;;;;;6219294;23;20394;-80
2023/06/06 10:16:34;;;;;;;8.95;5.65;;;17.20;99.90;;;;;;6244137;23;20358;-82
2023/06/06 10:19:00;;;;;;;11.45;5.47;;;;;;;;;;6218897;23;20012;-81
2023/06/06 10:21:28;;;;;;;9.00;5.97;;;17.40;99.90;;;;;;6244370;23;20082;-82
2023/06/06 10:23:54;;;;;;;9.80;5.93;;;;;;;;;;6218743;23;20016;-81
2023/06/06 10:26:52;;;;;;;16.02;5.63;;;17.30;99.90;;;;;;6219542;23;20021;-82
2023/06/06 10:29:39;;;;;;;8.38;6.07;;;17.50;99.90;;;;;;6184656;23;20016;-80
2023/06/06 10:32:20;;;;;;;16.08;5.90;;;17.30;99.90;;;;;;6219321;23;20020;-80
2023/06/06 10:34:52;;;;;;;11.73;5.50;;;17.60;99.90;;;;;;6244369;23;20023;-82
2023/06/06 10:37:22;;;;;;;10.43;5.45;;;17.30;99.90;;;;;;6219775;23;20477;-80
2023/06/06 10:39:59;;;;;;;11.68;5.95;;;17.50;99.90;;;;;;6219040;23;20047;-81
2023/06/06 10:42:54;;;;;;;10.73;6.32;;;17.60;99.90;;;;;;6218899;23;20027;-81
2023/06/06 10:45:44;;;;;;;13.48;5.82;;;17.40;99.90;;;;;;6193985;23;20032;-80
2023/06/06 10:48:13;;;;;;;12.40;6.28;;;;;;;;;;6244432;23;20024;-80
2023/06/06 10:50:52;;;;;;;10.50;6.75;;;17.80;99.90;;;;;;6219506;23;20019;-80
2023/06/06 10:53:18;;;;;;;9.70;5.75;;;17.70;99.90;;;;;;6219249;23;20016;-80
2023/06/06 10:55:45;;;;;;;11.77;6.68;;;;;;;;;;6219137;23;20055;-81
2023/06/06 10:58:20;;;;;;;11.20;6.30;;;17.60;99.90;;;;;;6218882;23;20020;-80
2023/06/06 11:00:55;;;;;;;15.80;6.80;;;17.80;99.90;;;;;;6219217;23;20016;-81
2023/06/06 11:03:32;;;;;;;10.43;5.50;;;17.90;99.90;;;;;;6219028;23;20089;-83
2023/06/06 11:06:03;;;;;;;9.98;5.28;;;17.60;99.90;;;;;;6244236;23;20016;-83
2023/06/06 11:08:56;;;;;;;8.00;5.55;;;17.80;99.90;;;;;;6219072;23;20035;-83
2023/06/06 11:11:22;;;;;;;8.15;4.95;;;;;;;;;;6219684;23;20102;-85
2023/06/06 11:14:06;;;;;;;9.20;4.95;;;17.90;99.90;;;;;;6219796;23;20016;-83
2023/06/06 11:16:38;;;;;;;13.43;5.40;;;17.90;99.90;;;;;;6219848;23;20023;-81
2023/06/06 11:19:08;;;;;;;9.95;5.50;;;17.70;99.90;;;;;;6244618;23;20016;-81
2023/06/06 11:21:41;;;;;;;10.07;5.20;;;18.10;99.90;;;;;;6218941;23;20043;-81
2023/06/06 11:24:09;;;;;;;10.70;5.50;;;18.20;99.90;;;;;;6219396;23;20017;-81
2023/06/06 11:26:37;;;;;;;11.05;6.18;;;18.10;99.90;;;;;;6219571;23;20078;-81
2023/06/06 11:29:04;;;;;;;14.48;6.05;;;18.10;99.90;;;;;;6219372;23;20016;-83
2023/06/06 11:31:32;;;;;;;8.38;5.75;;;17.90;99.90;;;;;;6220676;23;20491;-81
2023/06/06 11:34:08;;;;;;;8.27;5.57;;;18.10;99.90;;;;;;6246486;23;20341;-81
2023/06/06 11:36:35;;;;;;;10.80;6.35;;;18.00;99.90;;;;;;6247420;23;20023;-81
2023/06/06 11:39:04;;;;;;;13.57;5.70;;;18.30;99.90;;;;;;6246169;23;20020;-80
2023/06/06 11:41:30;;;;;;;11.77;5.97;;;;;;;;;;6246991;23;20024;-81
2023/06/06 11:43:56;;;;;;;9.20;5.95;;;;;;;;;;6221431;23;20016;-85
2023/06/06 11:46:22;;;;;;;11.88;6.00;;;;;;;;;;6246615;23;20445;-84
2023/06/06 11:48:58;;;;;;;10.90;5.93;;;18.40;99.90;;;;;;6246811;23;20524;-84
2023/06/06 11:51:25;;;;;;;11.85;5.70;;;;;;;;;;6221339;23;20020;-88
2023/06/06 11:53:51;;;;;;;11.25;6.30;;;18.30;99.90;;;;;;6221469;23;20020;-83
2023/06/06 11:56:19;;;;;;;10.38;5.38;;;18.40;99.90;;;;;;6221477;23;20026;-84
2023/06/06 11:58:45;;;;;;;9.98;5.25;;;;;;;;;;6245398;22;20376;-80
2023/06/06 12:01:12;;;;;;;15.93;4.95;;;18.30;99.90;;;;;;6195528;23;20441;-81
2023/06/06 12:03:39;;;;;;;13.15;4.85;;;18.30;99.90;;;;;;6220062;23;20012;-81
2023/06/06 12:06:06;;;;;;;11.55;5.10;;;18.30;99.90;;;;;;6220038;23;20038;-82
2023/06/06 12:08:36;;;;;;;14.43;5.32;;;18.40;99.90;;;;;;6220197;23;20450;-81
2023/06/06 12:11:26;;;;;;;11.15;5.38;;;18.50;99.90;;;;;;6195531;23;20349;-81
2023/06/06 12:13:52;;;;;;;9.57;5.53;;;;;;;;;;6220252;23;20078;-81
2023/06/06 12:16:23;;;;;;;9.23;4.97;;;18.50;99.90;;;;;;6245401;23;20016;-80
2023/06/06 12:18:50;;;;;;;10.32;5.22;;;18.50;99.90;;;;;;6219848;23;20016;-80
2023/06/06 12:21:22;;;;;;;8.43;4.85;;;18.70;99.90;;;;;;6198204;23;20047;-82
2023/06/06 12:23:48;;;;;;;11.73;5.25;;;18.70;99.90;;;;;;6245361;23;20020;-80
2023/06/06 12:26:16;;;;;;;8.52;4.85;;;18.80;99.90;;;;;;6245177;23;20051;-83
2023/06/06 12:29:09;;;;;;;7.75;4.93;;;18.60;99.90;;;;;;6219891;23;20023;-81
2023/06/06 12:31:37;;;;;;;16.55;5.35;;;18.70;99.90;;;;;;6215692;23;20016;-81
2023/06/06 12:34:03;;;;;;;9.77;5.15;;;;;;;;;;6195430;23;20023;-81
2023/06/06 12:36:30;;;;;;;7.13;5.00;;;;;;;;;;6220001;23;20073;-82
2023/06/06 12:38:56;;;;;;;8.80;5.13;;;;;;;;;;6220254;23;20401;-81
2023/06/06 12:41:22;;;;;;;15.90;5.75;;;;;;;;;;6219412;23;20016;-81
2023/06/06 12:43:48;;;;;;;9.15;4.07;;;;;;;;;;6219584;23;20024;-81
2023/06/06 12:46:14;;;;;;;10.15;4.53;;;18.40;99.90;;;;;;6195055;23;20350;-82
2023/06/06 12:48:40;;;;;;;11.63;4.20;;;;;;;;;;6196986;23;20016;-84
2023/06/06 12:51:10;;;;;;;9.00;4.47;;;18.80;99.50;;;;;;6222340;23;20020;-82
2023/06/06 12:53:36;;;;;;;11.05;4.88;;;;;;;;;;6246781;23;20047;-86
2023/06/06 12:56:03;;;;;;;10.35;4.50;;;;;;;;;;6246975;23;20020;-85
2023/06/06 12:58:28;;;;;;;14.75;4.15;;;18.70;99.90;;;;;;6197457;23;20023;-89
2023/06/06 13:00:55;;;;;;;8.85;4.57;;;;;;;;;;6198708;23;20020;-95
2023/06/06 13:03:21;;;;;;;8.27;4.47;;;;;;;;;;6250466;23;20510;-91
2023/06/06 13:05:50;;;;;;;11.15;4.43;;;;;;;;;;6200108;23;20020;-89
2023/06/06 13:08:17;;;;;;;13.43;4.90;;;;;;;;;;6249857;23;20027;-94
2023/06/06 13:10:43;;;;;;;12.15;4.65;;;;;;;;;;6221531;23;20055;-84
2023/06/06 13:13:10;;;;;;;10.02;5.47;;;;;;;;;;6222433;23;20016;-87
2023/06/06 13:15:36;;;;;;;9.27;4.53;;;;;;;;;;6197929;23;20039;-85
2023/06/06 13:18:02;;;;;;;10.13;4.32;;;;;;;;;;6221536;23;20016;-83
2023/06/06 13:20:28;;;;;;;6.60;3.85;;;;;;;;;;6221079;23;20047;-84
2023/06/06 13:22:54;;;;;;;7.40;4.32;;;;;;;;;;6196117;23;20099;-82
2023/06/06 13:25:20;;;;;;;11.85;6.13;;;;;;;;;;6219583;23;20039;-82
2023/06/06 13:27:48;;;;;;;17.58;4.82;;;;;;;;;;6244860;23;20445;-83
2023/06/06 13:30:14;;;;;;;6.53;4.25;;;;;;;;;;6219838;23;20531;-81
2023/06/06 13:32:40;;;;;;;9.05;4.72;;;;;;;;;;6219428;23;20020;-81
2023/06/06 13:35:07;;;;;;;10.57;4.63;;;;;;;;;;6195054;23;20027;-81
2023/06/06 13:37:34;;;;;;;10.27;4.75;;;;;;;;;;6244517;23;20034;-82
2023/06/06 13:40:00;;;;;;;9.85;4.50;;;;;;;;;;6219474;23;20016;-82
2023/06/06 13:42:26;;;;;;;7.28;4.53;;;19.00;97.20;;;;;;6219127;23;20012;-83
2023/06/06 13:44:52;;;;;;;9.30;5.32;;;19.10;98.80;;;;;;6219408;23;20451;-82
2023/06/06 13:47:18;;;;;;;17.65;6.90;;;;;;;;;;6219761;23;20345;-81
2023/06/06 13:49:44;;;;;;;7.78;4.28;;;;;;;;;;6244425;23;20016;-81
2023/06/06 13:52:10;;;;;;;9.82;4.75;;;;;;;;;;6219101;23;20525;-81
2023/06/06 13:54:36;;;;;;;8.57;5.45;;;19.30;96.50;;;;;;6219225;23;20018;-82
2023/06/06 13:57:03;;;;;;;12.13;5.18;;;;;;;;;;6219115;23;20048;-82